sensor_id;sensor_type;location;lat;lon;timestamp;temperature;humidity
43520;DHT22;46848;51.980;5.918;2022-09-01T00:01:27;20.90;52.10
43520;DHT22;46848;51.980;5.918;2022-09-01T00:03:56;20.90;52.20
43520;DHT22;46848;51.980;5.918;2022-09-01T00:06:28;20.90;52.30
43520;DHT22;46848;51.980;5.918;2022-09-01T00:08:56;20.80;52.40
43520;DHT22;46848;51.980;5.918;2022-09-01T00:11:25;20.80;53.10
43520;DHT22;46848;51.980;5.918;2022-09-01T00:13:52;20.70;52.60
43520;DHT22;46848;51.980;5.918;2022-09-01T00:16:19;20.70;52.70
43520;DHT22;46848;51.980;5.918;2022-09-01T00:18:49;20.60;52.80
43520;DHT22;46848;51.980;5.918;2022-09-01T00:21:16;20.60;52.90
43520;DHT22;46848;51.980;5.918;2022-09-01T00:23:42;20.60;52.90
43520;DHT22;46848;51.980;5.918;2022-09-01T00:26:08;20.60;52.90
43520;DHT22;46848;51.980;5.918;2022-09-01T00:28:35;20.60;52.90
43520;DHT22;46848;51.980;5.918;2022-09-01T00:31:01;20.60;53.00
43520;DHT22;46848;51.980;5.918;2022-09-01T00:33:27;20.60;53.00
43520;DHT22;46848;51.980;5.918;2022-09-01T00:35:53;20.60;53.00
43520;DHT22;46848;51.980;5.918;2022-09-01T00:38:19;20.60;53.00
43520;DHT22;46848;51.980;5.918;2022-09-01T00:40:44;20.60;53.60
43520;DHT22;46848;51.980;5.918;2022-09-01T00:46:25;20.60;53.10
43520;DHT22;46848;51.980;5.918;2022-09-01T00:49:01;20.60;53.00
43520;DHT22;46848;51.980;5.918;2022-09-01T00:51:28;20.50;52.90
43520;DHT22;46848;51.980;5.918;2022-09-01T00:53:56;20.50;52.90
43520;DHT22;46848;51.980;5.918;2022-09-01T00:56:22;20.60;53.00
43520;DHT22;46848;51.980;5.918;2022-09-01T00:58:49;20.60;53.00
43520;DHT22;46848;51.980;5.918;2022-09-01T01:01:16;20.50;52.90
43520;DHT22;46848;51.980;5.918;2022-09-01T01:03:42;20.50;53.00
43520;DHT22;46848;51.980;5.918;2022-09-01T01:06:09;20.50;53.00
43520;DHT22;46848;51.980;5.918;2022-09-01T01:08:40;20.40;53.00
43520;DHT22;46848;51.980;5.918;2022-09-01T01:11:14;20.40;53.20
43520;DHT22;46848;51.980;5.918;2022-09-01T01:13:50;20.40;53.20
43520;DHT22;46848;51.980;5.918;2022-09-01T01:16:17;20.30;53.20
43520;DHT22;46848;51.980;5.918;2022-09-01T01:18:43;20.30;53.30
43520;DHT22;46848;51.980;5.918;2022-09-01T01:21:16;20.30;53.30
43520;DHT22;46848;51.980;5.918;2022-09-01T01:24:26;20.30;53.20
43520;DHT22;46848;51.980;5.918;2022-09-01T01:26:53;20.30;53.00
43520;DHT22;46848;51.980;5.918;2022-09-01T01:29:26;20.30;52.90
43520;DHT22;46848;51.980;5.918;2022-09-01T01:31:57;20.30;52.90
43520;DHT22;46848;51.980;5.918;2022-09-01T01:34:23;20.40;52.80
43520;DHT22;46848;51.980;5.918;2022-09-01T01:36:49;20.40;52.70
43520;DHT22;46848;51.980;5.918;2022-09-01T01:39:23;20.40;52.50
43520;DHT22;46848;51.980;5.918;2022-09-01T01:41:51;20.40;52.40
43520;DHT22;46848;51.980;5.918;2022-09-01T01:44:19;20.40;52.20
43520;DHT22;46848;51.980;5.918;2022-09-01T01:46:50;20.40;52.00
43520;DHT22;46848;51.980;5.918;2022-09-01T01:49:19;20.40;51.90
43520;DHT22;46848;51.980;5.918;2022-09-01T01:51:50;20.40;51.90
43520;DHT22;46848;51.980;5.918;2022-09-01T01:54:24;20.40;51.80
43520;DHT22;46848;51.980;5.918;2022-09-01T01:56:51;20.40;51.80
43520;DHT22;46848;51.980;5.918;2022-09-01T01:59:16;20.40;51.70
43520;DHT22;46848;51.980;5.918;2022-09-01T02:01:44;20.40;51.60
43520;DHT22;46848;51.980;5.918;2022-09-01T02:04:13;20.40;51.40
43520;DHT22;46848;51.980;5.918;2022-09-01T02:06:39;20.40;51.40
43520;DHT22;46848;51.980;5.918;2022-09-01T02:09:11;20.30;51.20
43520;DHT22;46848;51.980;5.918;2022-09-01T02:11:37;20.30;51.10
43520;DHT22;46848;51.980;5.918;2022-09-01T02:14:04;20.30;50.90
43520;DHT22;46848;51.980;5.918;2022-09-01T02:16:32;20.30;50.90
43520;DHT22;46848;51.980;5.918;2022-09-01T02:18:59;20.30;50.80
43520;DHT22;46848;51.980;5.918;2022-09-01T02:21:25;20.30;50.80
43520;DHT22;46848;51.980;5.918;2022-09-01T02:24:00;20.30;50.70
43520;DHT22;46848;51.980;5.918;2022-09-01T02:26:35;20.30;50.70
43520;DHT22;46848;51.980;5.918;2022-09-01T02:29:09;20.30;50.70
43520;DHT22;46848;51.980;5.918;2022-09-01T02:31:36;20.30;50.70
43520;DHT22;46848;51.980;5.918;2022-09-01T02:34:08;20.20;50.70
43520;DHT22;46848;51.980;5.918;2022-09-01T02:36:39;20.30;50.80
43520;DHT22;46848;51.980;5.918;2022-09-01T02:39:16;20.20;50.70
43520;DHT22;46848;51.980;5.918;2022-09-01T02:41:43;20.30;50.80
43520;DHT22;46848;51.980;5.918;2022-09-01T02:44:08;20.20;50.70
43520;DHT22;46848;51.980;5.918;2022-09-01T02:46:38;20.20;50.80
43520;DHT22;46848;51.980;5.918;2022-09-01T02:49:07;20.10;50.90
43520;DHT22;46848;51.980;5.918;2022-09-01T02:51:40;20.10;51.10
43520;DHT22;46848;51.980;5.918;2022-09-01T02:54:06;20.10;51.10
43520;DHT22;46848;51.980;5.918;2022-09-01T02:56:32;20.10;51.10
43520;DHT22;46848;51.980;5.918;2022-09-01T02:58:58;20.10;51.20
43520;DHT22;46848;51.980;5.918;2022-09-01T03:01:30;20.10;51.20
43520;DHT22;46848;51.980;5.918;2022-09-01T03:04:02;20.10;51.20
43520;DHT22;46848;51.980;5.918;2022-09-01T03:06:31;20.10;51.10
43520;DHT22;46848;51.980;5.918;2022-09-01T03:08:59;20.10;51.20
43520;DHT22;46848;51.980;5.918;2022-09-01T03:11:27;20.10;51.20
43520;DHT22;46848;51.980;5.918;2022-09-01T03:13:53;20.00;51.20
43520;DHT22;46848;51.980;5.918;2022-09-01T03:16:19;20.10;51.30
43520;DHT22;46848;51.980;5.918;2022-09-01T03:18:46;20.00;51.20
43520;DHT22;46848;51.980;5.918;2022-09-01T03:21:12;20.10;51.30
43520;DHT22;46848;51.980;5.918;2022-09-01T03:23:42;20.00;51.30
43520;DHT22;46848;51.980;5.918;2022-09-01T03:26:08;20.00;51.20
43520;DHT22;46848;51.980;5.918;2022-09-01T03:28:34;20.00;51.30
43520;DHT22;46848;51.980;5.918;2022-09-01T03:31:03;19.90;51.30
43520;DHT22;46848;51.980;5.918;2022-09-01T03:33:29;19.80;51.40
43520;DHT22;46848;51.980;5.918;2022-09-01T03:35:56;19.80;51.60
43520;DHT22;46848;51.980;5.918;2022-09-01T03:38:22;19.80;51.60
43520;DHT22;46848;51.980;5.918;2022-09-01T03:40:54;19.80;51.70
43520;DHT22;46848;51.980;5.918;2022-09-01T03:43:24;19.70;51.70
43520;DHT22;46848;51.980;5.918;2022-09-01T03:45:53;19.70;51.80
43520;DHT22;46848;51.980;5.918;2022-09-01T03:48:21;19.60;51.80
43520;DHT22;46848;51.980;5.918;2022-09-01T03:50:47;19.70;51.80
43520;DHT22;46848;51.980;5.918;2022-09-01T03:53:17;19.60;51.70
43520;DHT22;46848;51.980;5.918;2022-09-01T03:55:45;19.60;51.90
43520;DHT22;46848;51.980;5.918;2022-09-01T03:58:13;19.60;52.50
43520;DHT22;46848;51.980;5.918;2022-09-01T04:00:45;19.60;51.90
43520;DHT22;46848;51.980;5.918;2022-09-01T04:03:12;19.60;51.90
43520;DHT22;46848;51.980;5.918;2022-09-01T04:05:42;19.50;51.90
43520;DHT22;46848;51.980;5.918;2022-09-01T04:08:09;19.50;52.00
43520;DHT22;46848;51.980;5.918;2022-09-01T04:10:44;19.60;52.00
43520;DHT22;46848;51.980;5.918;2022-09-01T04:13:13;19.50;51.90
43520;DHT22;46848;51.980;5.918;2022-09-01T04:15:39;19.60;51.90
43520;DHT22;46848;51.980;5.918;2022-09-01T04:18:05;19.60;52.00
43520;DHT22;46848;51.980;5.918;2022-09-01T04:20:41;19.60;51.90
43520;DHT22;46848;51.980;5.918;2022-09-01T04:23:31;19.50;52.00
43520;DHT22;46848;51.980;5.918;2022-09-01T04:28:36;19.50;51.90
43520;DHT22;46848;51.980;5.918;2022-09-01T04:31:06;19.40;51.90
43520;DHT22;46848;51.980;5.918;2022-09-01T04:33:37;19.40;52.00
43520;DHT22;46848;51.980;5.918;2022-09-01T04:36:25;19.30;52.00
43520;DHT22;46848;51.980;5.918;2022-09-01T04:38:57;19.30;52.10
43520;DHT22;46848;51.980;5.918;2022-09-01T04:41:28;19.30;52.10
43520;DHT22;46848;51.980;5.918;2022-09-01T04:43:58;19.20;52.10
43520;DHT22;46848;51.980;5.918;2022-09-01T04:46:26;19.10;52.20
43520;DHT22;46848;51.980;5.918;2022-09-01T04:48:55;19.00;52.50
43520;DHT22;46848;51.980;5.918;2022-09-01T04:51:22;18.90;52.30
43520;DHT22;46848;51.980;5.918;2022-09-01T04:53:55;18.90;52.40
43520;DHT22;46848;51.980;5.918;2022-09-01T04:56:22;18.90;52.50
43520;DHT22;46848;51.980;5.918;2022-09-01T04:58:52;18.80;52.60
43520;DHT22;46848;51.980;5.918;2022-09-01T05:01:24;18.70;52.70
43520;DHT22;46848;51.980;5.918;2022-09-01T05:03:50;18.70;52.80
43520;DHT22;46848;51.980;5.918;2022-09-01T05:06:28;18.70;53.20
43520;DHT22;46848;51.980;5.918;2022-09-01T05:08:54;18.90;53.40
43520;DHT22;46848;51.980;5.918;2022-09-01T05:11:25;19.10;53.10
43520;DHT22;46848;51.980;5.918;2022-09-01T05:13:52;19.30;52.70
43520;DHT22;46848;51.980;5.918;2022-09-01T05:16:22;19.40;52.30
43520;DHT22;46848;51.980;5.918;2022-09-01T05:18:50;19.60;52.20
43520;DHT22;46848;51.980;5.918;2022-09-01T05:21:18;19.70;51.90
43520;DHT22;46848;51.980;5.918;2022-09-01T05:23:46;19.90;51.70
43520;DHT22;46848;51.980;5.918;2022-09-01T05:26:15;20.00;51.20
43520;DHT22;46848;51.980;5.918;2022-09-01T05:28:43;20.00;51.00
43520;DHT22;46848;51.980;5.918;2022-09-01T05:31:09;20.10;50.70
43520;DHT22;46848;51.980;5.918;2022-09-01T05:33:35;20.10;51.20
43520;DHT22;46848;51.980;5.918;2022-09-01T05:36:02;20.10;50.50
43520;DHT22;46848;51.980;5.918;2022-09-01T05:38:33;20.10;50.60
43520;DHT22;46848;51.980;5.918;2022-09-01T05:41:00;20.10;50.60
43520;DHT22;46848;51.980;5.918;2022-09-01T05:43:29;20.20;50.50
43520;DHT22;46848;51.980;5.918;2022-09-01T05:45:56;20.20;50.40
43520;DHT22;46848;51.980;5.918;2022-09-01T05:48:22;20.20;50.40
43520;DHT22;46848;51.980;5.918;2022-09-01T05:50:50;20.20;50.30
43520;DHT22;46848;51.980;5.918;2022-09-01T05:53:20;20.30;50.40
43520;DHT22;46848;51.980;5.918;2022-09-01T05:55:50;20.30;50.30
43520;DHT22;46848;51.980;5.918;2022-09-01T05:58:19;20.30;50.10
43520;DHT22;46848;51.980;5.918;2022-09-01T06:00:45;20.30;50.60
43520;DHT22;46848;51.980;5.918;2022-09-01T06:03:14;20.30;49.90
43520;DHT22;46848;51.980;5.918;2022-09-01T06:05:42;20.30;49.90
43520;DHT22;46848;51.980;5.918;2022-09-01T06:08:13;20.30;49.90
43520;DHT22;46848;51.980;5.918;2022-09-01T06:10:40;20.40;49.90
43520;DHT22;46848;51.980;5.918;2022-09-01T06:13:10;20.40;49.80
43520;DHT22;46848;51.980;5.918;2022-09-01T06:15:36;20.40;49.60
43520;DHT22;46848;51.980;5.918;2022-09-01T06:18:06;20.50;49.50
43520;DHT22;46848;51.980;5.918;2022-09-01T06:20:33;20.60;49.30
43520;DHT22;46848;51.980;5.918;2022-09-01T06:23:03;20.60;49.10
43520;DHT22;46848;51.980;5.918;2022-09-01T06:25:29;20.70;49.10
43520;DHT22;46848;51.980;5.918;2022-09-01T06:27:55;20.90;48.80
43520;DHT22;46848;51.980;5.918;2022-09-01T06:30:22;21.00;48.50
43520;DHT22;46848;51.980;5.918;2022-09-01T06:32:52;21.20;48.20
43520;DHT22;46848;51.980;5.918;2022-09-01T06:35:18;21.40;48.00
43520;DHT22;46848;51.980;5.918;2022-09-01T06:37:45;21.60;48.00
43520;DHT22;46848;51.980;5.918;2022-09-01T06:40:13;21.70;48.60
43520;DHT22;46848;51.980;5.918;2022-09-01T06:42:47;21.60;47.80
43520;DHT22;46848;51.980;5.918;2022-09-01T06:45:20;21.70;47.70
43520;DHT22;46848;51.980;5.918;2022-09-01T06:47:47;21.60;47.60
43520;DHT22;46848;51.980;5.918;2022-09-01T06:50:16;21.60;47.60
43520;DHT22;46848;51.980;5.918;2022-09-01T06:52:44;21.80;47.40
43520;DHT22;46848;51.980;5.918;2022-09-01T06:55:13;21.90;47.20
43520;DHT22;46848;51.980;5.918;2022-09-01T06:57:41;22.20;46.90
43520;DHT22;46848;51.980;5.918;2022-09-01T07:00:14;22.30;46.60
43520;DHT22;46848;51.980;5.918;2022-09-01T07:02:46;22.50;46.30
43520;DHT22;46848;51.980;5.918;2022-09-01T07:05:14;22.70;46.00
43520;DHT22;46848;51.980;5.918;2022-09-01T07:07:47;22.80;45.70
43520;DHT22;46848;51.980;5.918;2022-09-01T07:10:17;23.00;45.50
43520;DHT22;46848;51.980;5.918;2022-09-01T07:12:49;23.00;45.40
43520;DHT22;46848;51.980;5.918;2022-09-01T07:15:16;23.00;45.50
43520;DHT22;46848;51.980;5.918;2022-09-01T07:17:50;23.10;45.40
43520;DHT22;46848;51.980;5.918;2022-09-01T07:20:22;23.30;45.30
43520;DHT22;46848;51.980;5.918;2022-09-01T07:22:48;23.20;45.00
43520;DHT22;46848;51.980;5.918;2022-09-01T07:25:14;23.20;45.10
43520;DHT22;46848;51.980;5.918;2022-09-01T07:27:43;23.10;45.00
43520;DHT22;46848;51.980;5.918;2022-09-01T07:30:17;23.10;45.30
43520;DHT22;46848;51.980;5.918;2022-09-01T07:32:44;23.00;45.40
43520;DHT22;46848;51.980;5.918;2022-09-01T07:35:11;22.90;45.40
43520;DHT22;46848;51.980;5.918;2022-09-01T07:37:37;22.70;45.60
43520;DHT22;46848;51.980;5.918;2022-09-01T07:40:05;22.60;45.70
43520;DHT22;46848;51.980;5.918;2022-09-01T07:42:30;22.50;45.80
43520;DHT22;46848;51.980;5.918;2022-09-01T07:44:56;22.50;46.60
43520;DHT22;46848;51.980;5.918;2022-09-01T07:47:22;22.50;46.00
43520;DHT22;46848;51.980;5.918;2022-09-01T07:49:48;22.60;45.80
43520;DHT22;46848;51.980;5.918;2022-09-01T07:52:14;22.80;45.70
43520;DHT22;46848;51.980;5.918;2022-09-01T07:54:39;23.00;45.50
43520;DHT22;46848;51.980;5.918;2022-09-01T07:57:05;23.20;45.50
43520;DHT22;46848;51.980;5.918;2022-09-01T07:59:31;23.30;45.20
43520;DHT22;46848;51.980;5.918;2022-09-01T08:01:57;23.50;45.00
43520;DHT22;46848;51.980;5.918;2022-09-01T08:04:23;23.60;44.80
43520;DHT22;46848;51.980;5.918;2022-09-01T08:06:50;23.70;44.50
43520;DHT22;46848;51.980;5.918;2022-09-01T08:09:16;23.80;44.40
